EDDS/STR METAR and TAF weather

Enter ICAO airport designator
Station Type Date Time Source
EDDS METAR 2018/10/22 17:20 UTC NOAA

EDDS 221720Z 34004KT CAVOK 13/03 Q1029 NOSIG


Station Type Date Time Source
EDDS Decoded METAR 2018/10/22 17:20 UTC NOAA

Stuttgart-Echterdingen, Germany (EDDS) 48-41N 009-13E 391M
Oct 22, 2018 - 01:20 PM EDT / 2018.10.22 1720 UTC
Wind: from the NNW (340 degrees) at 5 MPH (4 KT):0
Visibility: greater than 7 mile(s):0
Temperature: 55 F (13 C)
Dew Point: 37 F (3 C)
Relative Humidity: 50%
Pressure (altimeter): 30.39 in. Hg (1029 hPa)
ob: EDDS 221720Z 34004KT CAVOK 13/03 Q1029 NOSIG
cycle: 17

Station Type Date Time Source
EDDS TAF 2018/10/22 18:32 UTC NOAA

TAF EDDS 221700Z 2218/2318 34004KT CAVOK
BECMG 2309/2312 26008KT PROB30
TEMPO 2315/2318 27015G25KT


Example: see airport list